Time;durP1;ratioP1;P1;durP2;ratioP2;P2;SDS_P1;SDS_P2;PMS_P1;PMS_P2;Temp;Humidity;BMP_temperature;BMP_pressure;BME280_temperature;BME280_humidity;BME280_pressure;Samples;Min_cycle;Max_cycle;Signal;HPM_P1;HPM_P2
2022/07/08 00:01:12;;;;;;;16.10;6.78;;;;;;;18.99;75.31;99974.63;5082635;28;20052;-81
2022/07/08 00:03:40;;;;;;;7.03;4.60;;;;;;;18.94;75.12;99968.59;5074368;28;20056;-83
2022/07/08 00:06:07;;;;;;;6.75;4.10;;;;;;;18.95;75.17;99963.28;5076779;28;20051;-79
2022/07/08 00:08:34;;;;;;;6.57;4.13;;;;;;;18.92;75.46;99975.72;5085669;28;20544;-79
2022/07/08 00:11:01;;;;;;;4.03;3.20;;;;;;;18.89;75.34;99971.38;5081694;28;20053;-81
2022/07/08 00:13:28;;;;;;;4.70;2.92;;;;;;;18.93;75.37;99980.09;5080528;28;20063;-83
2022/07/08 00:15:55;;;;;;;4.20;3.35;;;;;;;18.87;75.19;99973.22;5076011;28;20056;-81
2022/07/08 00:18:22;;;;;;;5.28;3.53;;;;;;;18.85;75.29;99968.88;5077622;28;20083;-82
2022/07/08 00:20:50;;;;;;;8.18;3.40;;;;;;;18.80;75.05;99967.22;5075802;28;20052;-81
2022/07/08 00:23:17;;;;;;;5.78;3.42;;;;;;;18.75;75.31;99969.09;5074929;28;20501;-81
2022/07/08 00:25:44;;;;;;;11.98;5.15;;;;;;;18.69;75.45;99966.66;5076243;28;20052;-81
2022/07/08 00:28:11;;;;;;;16.02;6.63;;;;;;;18.65;75.61;99961.47;5075117;28;20048;-80
2022/07/08 00:30:38;;;;;;;15.00;6.60;;;;;;;18.56;75.86;99968.75;5090920;28;20501;-82
2022/07/08 00:33:05;;;;;;;15.65;5.35;;;;;;;18.46;75.90;99956.69;5075012;28;20063;-84
2022/07/08 00:35:32;;;;;;;22.48;7.55;;;;;;;18.37;76.38;99949.88;5057303;28;20052;-80
2022/07/08 00:37:59;;;;;;;11.98;4.90;;;;;;;18.35;76.64;99967.56;5075193;28;20057;-81
2022/07/08 00:40:26;;;;;;;24.23;8.70;;;;;;;18.30;76.65;99960.66;5074921;28;20106;-80
2022/07/08 00:42:53;;;;;;;23.83;10.32;;;;;;;18.16;77.10;99953.97;5056998;28;20104;-80
2022/07/08 00:45:20;;;;;;;18.73;6.97;;;;;;;18.21;77.35;99973.19;5074888;28;20504;-80
2022/07/08 00:47:47;;;;;;;10.20;4.00;;;;;;;18.16;77.34;99955.75;5083816;28;20052;-80
2022/07/08 00:50:14;;;;;;;10.73;5.05;;;;;;;18.17;77.46;99958.31;5098306;28;20100;-79
2022/07/08 00:52:41;;;;;;;23.52;10.43;;;;;;;18.27;77.15;99963.41;5061467;28;20060;-83
2022/07/08 00:55:09;;;;;;;12.90;5.78;;;;;;;18.24;77.24;99956.41;5075973;28;20060;-79
2022/07/08 00:57:38;;;;;;;16.63;6.55;;;;;;;18.17;77.18;99960.09;5090503;28;20109;-80
2022/07/08 01:00:07;;;;;;;19.10;7.00;;;;;;;18.08;77.46;99952.44;5082273;28;20517;-80
2022/07/08 01:02:34;;;;;;;14.07;5.60;;;;;;;18.09;77.56;99951.50;5094406;28;20060;-80
2022/07/08 01:05:00;;;;;;;12.10;5.10;;;;;;;17.81;77.29;99923.13;5095123;28;20063;-80
2022/07/08 01:07:28;;;;;;;16.35;6.78;;;;;;;18.09;77.40;99970.00;5099395;28;20066;-81
2022/07/08 01:09:55;;;;;;;27.70;10.15;;;;;;;18.05;77.27;99971.88;5098025;28;20052;-81
2022/07/08 01:12:22;;;;;;;18.00;7.13;;;;;;;18.03;77.47;99967.56;5095298;28;20062;-80
2022/07/08 01:14:49;;;;;;;18.58;7.15;;;;;;;18.11;77.09;99976.13;5094483;28;20120;-80
2022/07/08 01:17:16;;;;;;;26.85;9.55;;;;;;;18.09;76.79;99976.19;5093902;28;20711;-80
2022/07/08 01:19:43;;;;;;;26.67;10.38;;;;;;;18.15;76.70;99981.28;5094212;28;20107;-82
2022/07/08 01:22:11;;;;;;;15.02;6.85;;;;;;;17.98;77.02;99949.13;5096176;28;20047;-77
2022/07/08 01:24:37;;;;;;;15.40;7.03;;;;;;;18.09;76.71;99964.72;5103163;28;20233;-80
2022/07/08 01:27:05;;;;;;;18.05;6.95;;;;;;;18.11;76.62;99976.13;5094482;28;20060;-80
2022/07/08 01:29:33;;;;;;;19.00;7.13;;;;;;;18.06;76.53;99962.16;5094191;28;20120;-83
2022/07/08 01:32:00;;;;;;;22.90;8.45;;;;;;;18.06;76.54;99965.69;5075801;28;20448;-80
2022/07/08 01:34:28;;;;;;;15.60;6.90;;;;;;;18.17;76.24;99983.91;5094005;28;20112;-80
2022/07/08 01:36:55;;;;;;;21.58;7.97;;;;;;;18.13;76.06;99962.00;5094014;28;20044;-81
2022/07/08 01:39:21;;;;;;;17.20;7.60;;;;;;;18.28;75.53;99981.84;5094215;28;20188;-79
2022/07/08 01:41:48;;;;;;;22.50;8.00;;;;;;;18.40;75.25;99986.81;5094020;28;20055;-84
2022/07/08 01:44:15;;;;;;;23.58;9.85;;;;;;;18.35;75.00;99975.50;5076274;28;20079;-82
2022/07/08 01:46:42;;;;;;;26.73;10.23;;;;;;;18.48;74.60;100002.50;5094041;28;20056;-81
2022/07/08 01:49:14;;;;;;;18.23;7.35;;;;;;;18.45;74.30;99991.09;5093660;28;20089;-81
2022/07/08 01:51:41;;;;;;;18.35;8.18;;;;;;;18.38;74.31;99980.69;5059298;28;20497;-81
2022/07/08 01:54:08;;;;;;;26.48;8.82;;;;;;;18.60;73.83;100004.78;5093038;28;20060;-81
2022/07/08 01:56:44;;;;;;;16.27;6.43;;;;;;;18.65;73.34;100014.38;5094469;28;20063;-80
2022/07/08 01:59:10;;;;;;;20.98;7.65;;;;;;;18.67;73.42;100020.50;5093875;28;20143;-81
2022/07/08 02:01:38;;;;;;;15.25;6.25;;;;;;;18.66;73.29;100021.41;5093363;28;20117;-81
2022/07/08 02:04:05;;;;;;;18.20;7.20;;;;;;;18.60;73.65;100014.50;5075286;28;20457;-82
2022/07/08 02:06:32;;;;;;;19.42;7.40;;;;;;;18.54;73.54;100014.66;5076330;28;20146;-82
2022/07/08 02:08:59;;;;;;;15.77;7.47;;;;;;;18.48;73.79;100009.56;5067416;28;20428;-82
2022/07/08 02:14:11;;;;;;;17.95;6.78;;;;;;;18.60;73.33;100017.13;5073037;28;20438;-82
2022/07/08 02:16:38;;;;;;;20.63;7.10;;;;;;;18.70;72.89;99997.47;5073542;28;20155;-81
2022/07/08 02:19:06;;;;;;;21.83;8.10;;;;;;;19.00;71.91;100006.34;5077498;28;20520;-83
2022/07/08 02:21:33;;;;;;;11.82;5.30;;;;;;;19.85;69.55;100009.06;5089192;28;20105;-81
2022/07/08 02:23:59;;;;;;;22.05;8.57;;;;;;;21.46;64.19;100003.38;5093357;28;20051;-81
2022/07/08 02:26:27;;;;;;;14.50;6.03;;;;;;;21.58;62.83;100020.63;5094770;28;20052;-80
2022/07/08 02:28:53;;;;;;;21.20;8.82;;;;;;;21.89;61.88;100016.72;5094404;28;20055;-80
2022/07/08 02:31:28;;;;;;;10.63;5.30;;;;;;;22.42;60.49;100016.31;5087996;28;20044;-79
2022/07/08 02:33:56;;;;;;;13.07;5.90;;;;;;;21.84;61.32;100024.91;5081527;28;20076;-79
2022/07/08 02:36:23;;;;;;;11.35;4.90;;;;;;;21.01;63.91;100024.56;5079668;28;20052;-79
2022/07/08 02:38:50;;;;;;;12.10;5.72;;;;;;;20.54;65.10;100028.00;5078186;28;20062;-86
2022/07/08 02:41:17;;;;;;;6.00;2.70;;;;;;;20.01;66.62;100015.63;5072997;28;20044;-87
2022/07/08 02:43:44;;;;;;;7.13;2.60;;;;;;;19.87;67.30;100023.16;5073944;28;20513;-80
2022/07/08 02:46:11;;;;;;;11.07;4.68;;;;;;;19.65;67.87;100012.34;5072375;28;20060;-79
2022/07/08 02:48:38;;;;;;;4.70;2.45;;;;;;;19.73;68.30;100028.03;5074323;28;20048;-82
2022/07/08 02:51:05;;;;;;;5.13;2.67;;;;;;;19.81;67.90;100034.84;5081141;28;20052;-82
2022/07/08 02:53:32;;;;;;;5.53;2.72;;;;;;;19.91;67.84;100035.38;5079272;28;20094;-80
2022/07/08 02:55:59;;;;;;;3.28;2.38;;;;;;;20.36;66.71;100024.16;5075606;28;20460;-79
2022/07/08 02:58:27;;;;;;;2.75;2.30;;;;;;;20.99;63.76;99995.44;5074543;28;20052;-81
2022/07/08 03:00:54;;;;;;;4.07;2.42;;;;;;;21.25;62.95;100028.06;5072972;28;20109;-80
2022/07/08 03:03:22;;;;;;;2.83;2.10;;;;;;;21.01;63.54;100041.34;5072027;28;20403;-79
2022/07/08 03:05:49;;;;;;;19.45;11.77;;;;;;;20.52;64.42;100008.59;5072510;28;20053;-81
2022/07/08 03:08:16;;;;;;;3.80;2.08;;;;;;;20.39;65.19;100028.50;5072493;28;20053;-81
2022/07/08 03:10:43;;;;;;;5.60;3.03;;;;;;;20.16;66.01;100027.50;5073081;28;20053;-82
2022/07/08 03:13:10;;;;;;;4.45;2.20;;;;;;;19.97;66.80;100051.09;5072332;28;20045;-81
2022/07/08 03:15:36;;;;;;;4.53;2.85;;;;;;;19.73;67.59;100049.25;5074312;28;20053;-90
2022/07/08 03:18:04;;;;;;;6.80;2.40;;;;;;;19.54;68.16;100043.59;5072349;28;20044;-80
2022/07/08 03:20:31;;;;;;;3.30;2.38;;;;;;;19.57;68.39;100062.91;5072412;28;20453;-81
2022/07/08 03:22:58;;;;;;;4.85;3.22;;;;;;;19.49;68.47;100057.00;5073114;28;20501;-79
2022/07/08 03:25:25;;;;;;;5.35;3.00;;;;;;;19.59;68.20;100061.09;5078055;28;20059;-79
2022/07/08 03:27:52;;;;;;;13.27;6.03;;;;;;;19.48;68.38;100072.94;5077852;28;20506;-81
2022/07/08 03:30:19;;;;;;;9.70;4.97;;;;;;;19.48;68.72;100072.94;5075469;28;20053;-80
2022/07/08 03:32:46;;;;;;;8.32;3.55;;;;;;;19.47;68.47;100068.53;5112707;28;20050;-80
2022/07/08 03:35:13;;;;;;;7.22;3.45;;;;;;;19.59;68.17;100057.56;5112556;28;20496;-85
2022/07/08 03:37:42;;;;;;;7.90;4.75;;;;;;;19.76;67.73;100055.28;5077557;28;20055;-81
2022/07/08 03:42:56;;;;;;;2.22;2.13;;;;;;;20.02;66.36;100085.41;5115278;28;20079;-81
2022/07/08 03:45:23;;;;;;;2.47;2.15;;;;;;;20.02;66.48;100082.75;5098403;28;20056;-82
2022/07/08 03:47:51;;;;;;;2.05;1.95;;;;;;;20.16;65.75;100090.28;5116927;28;20055;-81
2022/07/08 03:50:19;;;;;;;2.17;1.90;;;;;;;20.37;65.27;100076.31;5116500;28;20146;-83
2022/07/08 03:52:46;;;;;;;3.15;2.15;;;;;;;20.75;63.75;100087.41;5098665;28;20058;-81
2022/07/08 03:55:14;;;;;;;3.70;2.15;;;;;;;20.86;63.02;100087.03;5116254;28;20090;-80
2022/07/08 03:57:41;;;;;;;2.20;2.00;;;;;;;20.81;63.31;100089.88;5115903;28;20466;-81
2022/07/08 04:00:09;;;;;;;4.05;2.10;;;;;;;20.90;62.51;100093.97;5116263;28;20056;-81
2022/07/08 04:02:36;;;;;;;5.97;2.20;;;;;;;20.68;62.77;100077.09;5115958;28;20108;-80
2022/07/08 04:05:03;;;;;;;2.05;1.70;;;;;;;20.75;62.99;100089.22;5116287;28;20043;-79
2022/07/08 04:07:32;;;;;;;3.13;1.88;;;;;;;21.16;61.90;100098.34;5116448;28;20101;-78
2022/07/08 04:10:00;;;;;;;6.68;2.25;;;;;;;21.42;61.00;100089.47;5119480;28;20081;-78
2022/07/08 04:12:27;;;;;;;2.63;2.00;;;;;;;21.66;60.55;100097.41;5116913;28;20086;-82
2022/07/08 04:14:54;;;;;;;2.45;2.25;;;;;;;22.05;59.33;100092.31;5115940;28;20112;-85
2022/07/08 04:17:21;;;;;;;2.67;1.60;;;;;;;22.08;58.79;100099.31;5116144;28;20052;-83
2022/07/08 04:19:48;;;;;;;5.22;2.90;;;;;;;22.22;58.37;100093.41;5116035;28;20101;-83
2022/07/08 04:22:15;;;;;;;3.65;2.10;;;;;;;22.40;58.03;100102.47;5131789;27;20044;-80
2022/07/08 04:24:42;;;;;;;9.13;2.63;;;;;;;22.49;57.44;100092.28;5105977;28;20105;-80
2022/07/08 04:27:09;;;;;;;3.53;2.30;;;;;;;22.58;57.53;100101.69;5095448;28;20582;-81
2022/07/08 04:29:36;;;;;;;2.20;2.00;;;;;;;22.73;57.24;100104.63;5095855;28;20056;-81
2022/07/08 04:32:04;;;;;;;7.32;2.10;;;;;;;22.88;55.94;100082.66;5096293;28;20054;-87
2022/07/08 04:34:31;;;;;;;2.45;1.88;;;;;;;23.14;55.23;100104.66;5079720;28;20071;-82
2022/07/08 04:36:58;;;;;;;2.88;1.90;;;;;;;23.22;55.00;100098.03;5074751;28;20049;-81
2022/07/08 04:39:25;;;;;;;2.25;2.00;;;;;;;23.22;55.04;100102.50;5073486;28;20059;-82
2022/07/08 04:41:52;;;;;;;2.55;1.98;;;;;;;23.34;54.85;100101.97;5079634;28;20075;-80
2022/07/08 04:44:19;;;;;;;2.40;2.20;;;;;;;23.55;54.58;100104.56;5066064;28;20524;-80
2022/07/08 04:46:46;;;;;;;2.20;2.00;;;;;;;24.28;53.00;100113.53;5076561;28;20056;-81
2022/07/08 04:49:15;;;;;;;3.08;1.60;;;;;;;24.64;51.26;100112.66;5083359;28;20489;-80
2022/07/08 04:51:42;;;;;;;2.75;2.13;;;;;;;24.67;51.15;100107.16;5076748;28;20517;-82
2022/07/08 04:54:09;;;;;;;3.05;1.80;;;;;;;24.38;50.75;100097.94;5079650;28;20056;-79
2022/07/08 04:56:36;;;;;;;4.97;2.08;;;;;;;24.22;51.34;100109.38;5108170;28;20084;-80
2022/07/08 04:59:03;;;;;;;5.15;1.77;;;;;;;24.10;51.15;100113.50;5076546;28;20121;-83
2022/07/08 05:01:30;;;;;;;3.38;1.63;;;;;;;24.19;50.66;100106.00;5094586;28;20083;-83
2022/07/08 05:03:57;;;;;;;2.00;1.50;;;;;;;24.09;50.42;100111.78;5094811;28;20548;-83
2022/07/08 05:06:24;;;;;;;10.52;6.80;;;;;;;23.86;50.79;100094.22;5076256;28;20513;-84
2022/07/08 05:08:51;;;;;;;2.38;2.17;;;;;;;23.94;51.21;100107.19;5094586;28;20055;-85
2022/07/08 05:11:18;;;;;;;2.10;1.95;;;;;;;24.08;50.93;100111.84;5094786;28;20105;-79
2022/07/08 05:13:47;;;;;;;2.17;1.60;;;;;;;23.98;49.99;100091.88;5095524;28;20060;-84
2022/07/08 05:16:14;;;;;;;1.23;1.23;;;;;;;23.91;50.50;100102.00;5094406;28;20148;-81
2022/07/08 05:18:41;;;;;;;2.53;1.70;;;;;;;23.87;50.43;100101.25;5095455;28;20051;-81
2022/07/08 05:21:09;;;;;;;4.82;1.50;;;;;;;23.62;50.63;100101.53;5094462;28;20082;-82
2022/07/08 05:23:36;;;;;;;1.48;1.30;;;;;;;22.75;53.04;100103.63;5074656;28;20079;-82
2022/07/08 05:26:03;;;;;;;2.85;1.60;;;;;;;22.84;53.05;100105.03;5098800;28;20062;-78
2022/07/08 05:28:30;;;;;;;3.08;1.63;;;;;;;23.36;51.40;100101.88;5105939;28;20055;-85
2022/07/08 05:30:58;;;;;;;1.65;1.55;;;;;;;23.82;49.89;100105.09;5096657;28;20105;-84
2022/07/08 05:33:25;;;;;;;3.97;1.50;;;;;;;23.86;49.57;100109.34;5076513;28;20523;-84
2022/07/08 05:35:52;;;;;;;1.63;1.40;;;;;;;23.67;50.29;100112.00;5094353;28;20588;-82
2022/07/08 05:38:19;;;;;;;1.60;1.50;;;;;;;23.99;49.56;100104.31;5076087;28;20051;-83
2022/07/08 05:40:47;;;;;;;4.63;1.80;;;;;;;24.23;48.49;100097.75;5096842;28;20055;-83
2022/07/08 05:43:14;;;;;;;2.03;1.60;;;;;;;24.68;47.97;100112.44;5096538;28;20405;-83
2022/07/08 05:45:41;;;;;;;1.38;1.20;;;;;;;24.94;46.28;100111.06;5101128;28;20056;-82
2022/07/08 05:48:08;;;;;;;1.40;1.30;;;;;;;24.89;46.32;100106.94;5102969;28;20048;-85
2022/07/08 05:50:35;;;;;;;1.45;1.25;;;;;;;24.64;46.75;100134.88;5100004;28;20051;-84
2022/07/08 05:53:03;;;;;;;3.22;1.40;;;;;;;24.62;47.01;100125.22;5095718;28;20059;-86
2022/07/08 05:55:30;;;;;;;4.40;1.42;;;;;;;24.64;46.22;100113.53;5076593;28;20402;-85
2022/07/08 05:57:56;;;;;;;1.30;1.30;;;;;;;24.27;47.06;100101.16;5095467;28;20052;-89
2022/07/08 06:00:24;;;;;;;1.40;1.30;;;;;;;24.30;46.91;100101.84;5075810;28;20050;-84
2022/07/08 06:02:51;;;;;;;1.80;1.20;;;;;;;24.75;46.28;100122.81;5096786;28;20052;-86
2022/07/08 06:05:18;;;;;;;1.40;1.30;;;;;;;24.66;46.35;100125.00;5082075;28;20052;-84
2022/07/08 06:07:45;;;;;;;1.75;1.65;;;;;;;24.76;45.81;100108.50;5082298;28;20052;-84
2022/07/08 06:10:12;;;;;;;5.78;1.52;;;;;;;24.79;45.71;100095.84;5100178;28;20098;-85
2022/07/08 06:12:39;;;;;;;1.50;1.40;;;;;;;25.29;45.04;100108.38;5099172;28;20056;-84
2022/07/08 06:15:06;;;;;;;2.17;1.50;;;;;;;25.63;44.87;100113.72;5095367;28;20147;-88
2022/07/08 06:17:36;;;;;;;3.05;1.70;;;;;;;25.45;44.22;100105.75;5076047;28;20075;-84
2022/07/08 06:20:04;;;;;;;1.65;1.55;;;;;;;25.10;44.20;100110.25;5095048;28;20139;-86
2022/07/08 06:22:31;;;;;;;1.70;1.60;;;;;;;25.02;44.47;100104.50;5111388;28;20052;-83
2022/07/08 06:24:59;;;;;;;6.70;3.83;;;;;;;25.13;44.94;100121.66;5096782;28;20063;-84
2022/07/08 06:27:26;;;;;;;2.97;2.10;;;;;;;24.89;44.69;100107.78;5093762;28;20070;-88
2022/07/08 06:29:53;;;;;;;2.30;1.80;;;;;;;24.84;45.17;100125.00;5094449;28;20044;-86
2022/07/08 06:32:20;;;;;;;3.63;3.10;;;;;;;24.57;45.70;100116.59;5109292;28;20063;-86
2022/07/08 06:34:47;;;;;;;3.72;2.10;;;;;;;24.94;45.33;100127.09;5096554;28;20050;-84
2022/07/08 06:37:15;;;;;;;2.78;2.00;;;;;;;24.83;45.28;100113.44;5114314;28;20055;-85
2022/07/08 06:39:42;;;;;;;1.95;1.85;;;;;;;24.15;46.97;100131.94;5113915;28;20052;-85
2022/07/08 06:42:09;;;;;;;2.92;2.65;;;;;;;23.75;48.49;100143.63;5078889;28;20051;-84
2022/07/08 06:44:36;;;;;;;1.98;1.50;;;;;;;23.68;48.58;100138.59;5096884;28;20397;-84
2022/07/08 06:47:05;;;;;;;5.85;3.83;;;;;;;23.78;47.44;100144.38;5096620;28;20516;-85
2022/07/08 06:49:32;;;;;;;3.75;3.03;;;;;;;23.86;46.73;100130.69;5093655;28;20142;-85
2022/07/08 06:51:59;;;;;;;3.53;3.17;;;;;;;23.96;46.89;100141.78;5093623;28;20490;-88
2022/07/08 06:54:35;;;;;;;1.80;1.70;;;;;;;23.82;46.45;100134.44;5093413;28;20132;-84
2022/07/08 06:57:06;;;;;;;2.85;1.60;;;;;;;23.83;46.59;100126.38;5093421;28;20505;-85
2022/07/08 06:59:35;;;;;;;2.50;1.65;;;;;;;24.18;46.57;100153.16;5075309;28;20113;-84
2022/07/08 07:02:22;;;;;;;3.75;1.60;;;;;;;25.06;44.81;100124.72;5075160;28;20527;-84
2022/07/08 07:04:49;;;;;;;4.30;1.65;;;;;;;25.37;44.66;100141.88;5093788;28;20046;-87
2022/07/08 07:07:16;;;;;;;3.65;1.83;;;;;;;25.06;45.34;100119.38;5095847;28;20124;-84
2022/07/08 07:09:47;;;;;;;3.22;1.60;;;;;;;25.07;45.32;100138.03;5075395;28;20442;-84
2022/07/08 07:12:17;;;;;;;1.58;1.48;;;;;;;24.48;45.97;100128.59;5076254;28;20055;-84
2022/07/08 07:14:44;;;;;;;2.30;1.45;;;;;;;24.40;45.52;100136.09;5094691;28;20062;-84
2022/07/08 07:17:12;;;;;;;2.00;1.40;;;;;;;24.47;45.29;100140.19;5096799;28;20458;-85
2022/07/08 07:19:39;;;;;;;2.97;2.45;;;;;;;24.49;44.84;100136.53;5100412;28;20425;-86
2022/07/08 07:22:06;;;;;;;2.90;2.30;;;;;;;24.77;44.36;100129.78;5099788;28;20119;-85
2022/07/08 07:24:33;;;;;;;4.30;2.10;;;;;;;24.78;45.08;100127.97;5103714;28;20048;-82
2022/07/08 07:27:00;;;;;;;3.42;1.50;;;;;;;24.86;44.97;100137.31;5116756;28;20042;-82
2022/07/08 07:29:27;;;;;;;2.08;1.40;;;;;;;24.99;44.01;100142.03;5118224;28;20052;-83
2022/07/08 07:31:54;;;;;;;4.55;2.65;;;;;;;25.37;42.98;100142.72;5125459;28;20056;-81
2022/07/08 07:34:21;;;;;;;1.52;1.42;;;;;;;25.99;41.76;100140.25;5095280;28;20051;-85
2022/07/08 07:36:48;;;;;;;1.40;1.30;;;;;;;26.55;40.86;100141.47;5113488;28;20056;-83
2022/07/08 07:39:21;;;;;;;1.58;1.48;;;;;;;26.72;40.28;100121.78;5088040;28;20117;-84
2022/07/08 07:41:48;;;;;;;1.83;1.23;;;;;;;26.69;40.41;100155.91;5097370;28;20060;-84
2022/07/08 07:44:15;;;;;;;1.48;1.38;;;;;;;26.13;41.60;100147.50;5097964;28;20076;-85
2022/07/08 07:46:43;;;;;;;1.98;1.75;;;;;;;25.85;41.99;100142.81;5099529;28;20394;-84
2022/07/08 07:49:10;;;;;;;2.67;1.45;;;;;;;25.59;42.79;100150.44;5117099;28;20055;-83
2022/07/08 07:51:37;;;;;;;1.48;1.38;;;;;;;25.39;43.36;100146.19;5096745;28;20056;-84
2022/07/08 07:54:04;;;;;;;1.70;1.60;;;;;;;25.45;43.24;100140.50;5096903;28;20072;-85
2022/07/08 07:56:32;;;;;;;1.63;1.52;;;;;;;25.43;42.58;100133.53;5096641;28;20059;-84
2022/07/08 07:59:00;;;;;;;2.85;1.80;;;;;;;25.34;42.92;100111.69;5096259;28;20056;-85
2022/07/08 08:01:29;;;;;;;3.55;2.13;;;;;;;25.68;42.59;100141.06;5096257;28;20056;-84
2022/07/08 08:03:57;;;;;;;4.57;2.60;;;;;;;25.59;42.42;100113.00;5096359;28;20084;-88
2022/07/08 08:06:24;;;;;;;2.13;1.70;;;;;;;25.90;41.68;100132.75;5061596;28;20052;-85
2022/07/08 08:08:51;;;;;;;2.33;1.70;;;;;;;25.57;41.73;100106.00;5098258;28;20043;-84
2022/07/08 08:11:18;;;;;;;3.50;1.77;;;;;;;25.68;42.08;100138.38;5099082;28;20416;-85
2022/07/08 08:13:45;;;;;;;4.30;3.00;;;;;;;25.45;42.88;100137.84;5077596;28;20515;-88
2022/07/08 08:16:13;;;;;;;5.30;2.78;;;;;;;25.33;43.02;100125.13;5098209;28;20056;-83
2022/07/08 08:18:40;;;;;;;4.28;2.80;;;;;;;25.46;43.27;100138.69;5097187;28;20559;-84
2022/07/08 08:21:07;;;;;;;4.00;1.80;;;;;;;25.50;43.12;100146.47;5096354;28;20059;-84
2022/07/08 08:23:34;;;;;;;3.08;1.60;;;;;;;25.38;42.71;100143.59;5096363;28;20524;-85
2022/07/08 08:26:01;;;;;;;2.00;1.38;;;;;;;25.29;43.34;100152.97;5078450;28;20143;-86
2022/07/08 08:28:28;;;;;;;2.72;1.55;;;;;;;25.21;42.93;100125.75;5095291;28;20044;-85
2022/07/08 08:30:55;;;;;;;1.55;1.33;;;;;;;25.50;42.92;100162.50;5095601;28;20050;-84
2022/07/08 08:33:23;;;;;;;2.53;1.92;;;;;;;25.52;42.91;100178.47;5101104;28;20059;-88
2022/07/08 08:35:50;;;;;;;1.85;1.75;;;;;;;25.36;43.36;100166.84;5078739;28;20486;-85
2022/07/08 08:38:17;;;;;;;2.70;1.98;;;;;;;25.17;44.30;100166.94;5099152;28;20120;-87
2022/07/08 08:40:46;;;;;;;3.58;1.88;;;;;;;25.07;44.53;100174.56;5099520;28;20583;-88
2022/07/08 08:43:13;;;;;;;3.83;2.22;;;;;;;25.25;43.72;100168.31;5099635;28;20052;-85
2022/07/08 08:45:43;;;;;;;2.15;1.50;;;;;;;25.25;44.01;100171.00;5096494;28;20047;-86
2022/07/08 08:48:11;;;;;;;1.92;1.63;;;;;;;25.43;43.37;100152.25;5078020;28;20082;-86
2022/07/08 08:50:53;;;;;;;2.50;1.90;;;;;;;25.41;43.22;100163.00;5100510;28;20121;-84
2022/07/08 08:53:38;;;;;;;1.27;1.27;;;;;;;25.36;43.53;100150.81;5095532;28;20052;-85
2022/07/08 08:56:09;;;;;;;2.05;1.70;;;;;;;25.65;42.75;100165.31;5077219;28;20063;-85
2022/07/08 08:58:38;;;;;;;2.75;1.67;;;;;;;25.85;41.75;100150.81;5096402;28;20060;-87
2022/07/08 09:01:08;;;;;;;1.80;1.70;;;;;;;26.08;41.31;100152.25;5096193;28;20117;-86
2022/07/08 09:03:36;;;;;;;4.05;3.50;;;;;;;26.24;40.98;100163.84;5060613;28;20072;-84
2022/07/08 09:06:04;;;;;;;6.63;4.22;;;;;;;26.61;41.12;100167.09;5096220;28;20056;-85
2022/07/08 09:08:32;;;;;;;3.83;2.80;;;;;;;26.63;40.82;100162.50;5095940;28;20047;-83
2022/07/08 09:11:00;;;;;;;6.05;3.63;;;;;;;26.83;40.58;100171.19;5066420;28;20056;-85
2022/07/08 09:13:27;;;;;;;5.88;3.50;;;;;;;27.04;39.77;100174.38;5099650;28;20101;-85
2022/07/08 09:15:59;;;;;;;5.13;3.22;;;;;;;27.01;39.68;100175.44;5097229;28;20147;-84
2022/07/08 09:18:38;;;;;;;5.78;3.15;;;;;;;26.93;39.58;100150.91;5078839;28;20528;-85
2022/07/08 09:21:07;;;;;;;3.85;1.98;;;;;;;27.32;39.09;100157.53;5098851;28;20059;-86
2022/07/08 09:23:38;;;;;;;3.72;2.80;;;;;;;27.12;39.13;100143.47;5100774;28;20501;-86
2022/07/08 09:26:08;;;;;;;2.65;1.90;;;;;;;27.13;39.38;100160.44;5102425;28;20116;-84
2022/07/08 09:28:44;;;;;;;2.47;2.25;;;;;;;27.08;39.18;100163.41;5103418;28;20238;-88
2022/07/08 09:31:12;;;;;;;2.65;2.35;;;;;;;27.22;39.00;100161.72;5109008;28;20416;-84
2022/07/08 09:33:41;;;;;;;;;;;;;;;26.90;40.16;100161.81;5096382;28;20067;-84
2022/07/08 09:36:09;;;;;;;3.97;1.90;;;;;;;27.04;39.74;100160.97;5076646;28;19935;-86
2022/07/08 09:38:37;;;;;;;2.28;2.08;;;;;;;27.09;39.47;100151.72;5094844;28;20052;-84
2022/07/08 09:41:20;;;;;;;2.72;1.50;;;;;;;26.71;39.99;100140.59;5094804;28;20056;-87
2022/07/08 09:43:50;;;;;;;2.15;1.48;;;;;;;26.27;40.56;100136.88;5094626;28;20497;-85
2022/07/08 09:46:19;;;;;;;3.53;1.52;;;;;;;26.22;41.10;100154.13;5094269;28;20066;-85
2022/07/08 09:48:47;;;;;;;3.00;2.20;;;;;;;26.12;41.75;100160.03;5093080;28;20077;-86
2022/07/08 09:51:16;;;;;;;9.05;4.28;;;;;;;25.84;42.38;100165.16;5093718;28;20537;-83
2022/07/08 09:53:43;;;;;;;8.02;4.60;;;;;;;25.72;42.38;100162.19;5076595;28;20048;-85
2022/07/08 09:56:11;;;;;;;3.88;2.70;;;;;;;25.88;41.92;100148.88;5095965;28;20089;-85
2022/07/08 09:58:39;;;;;;;6.00;3.45;;;;;;;25.95;41.13;100157.44;5094795;28;20051;-84
2022/07/08 10:01:07;;;;;;;8.13;4.30;;;;;;;25.70;41.65;100153.38;5077807;28;20062;-85
2022/07/08 10:03:38;;;;;;;2.58;1.98;;;;;;;25.76;41.43;100146.84;5093921;28;20076;-86
2022/07/08 10:06:05;;;;;;;9.10;3.90;;;;;;;25.92;41.85;100153.13;5094214;28;20508;-85
2022/07/08 10:08:32;;;;;;;3.45;2.00;;;;;;;25.67;41.84;100147.38;5093781;28;20496;-86
2022/07/08 10:11:05;;;;;;;2.63;2.08;;;;;;;25.58;42.00;100148.72;5094006;28;20052;-84
2022/07/08 10:13:34;;;;;;;1.88;1.77;;;;;;;25.78;41.97;100160.16;5096294;28;20048;-84
2022/07/08 10:16:04;;;;;;;1.70;1.60;;;;;;;25.70;41.79;100136.47;5094440;28;20067;-86
2022/07/08 10:18:44;;;;;;;2.80;1.50;;;;;;;26.00;40.63;100135.75;5075741;28;20513;-86
2022/07/08 10:21:16;;;;;;;2.33;1.90;;;;;;;26.04;41.25;100143.53;5075792;28;20072;-84
2022/07/08 10:23:48;;;;;;;3.20;2.03;;;;;;;26.19;41.52;100152.50;5075482;28;20047;-84
2022/07/08 10:26:22;;;;;;;5.88;2.80;;;;;;;26.10;41.70;100134.28;5093545;28;20070;-85
2022/07/08 10:29:13;;;;;;;2.13;1.75;;;;;;;26.04;41.73;100142.66;5108907;28;20055;-89
2022/07/08 10:31:51;;;;;;;4.68;3.92;;;;;;;26.22;41.31;100141.63;5094384;28;20072;-87
2022/07/08 10:34:30;;;;;;;2.20;1.90;;;;;;;26.26;40.62;100140.47;5075886;28;20584;-84
2022/07/08 10:36:57;;;;;;;2.30;2.10;;;;;;;26.34;40.33;100154.31;5093444;28;20078;-87
2022/07/08 10:39:28;;;;;;;2.22;2.00;;;;;;;26.09;40.91;100149.50;5093404;28;20463;-85
2022/07/08 10:42:01;;;;;;;1.75;1.65;;;;;;;26.39;40.15;100150.50;5090767;28;20055;-86
2022/07/08 10:44:44;;;;;;;1.90;1.73;;;;;;;26.67;39.85;100147.09;5082054;28;20067;-86
2022/07/08 10:47:22;;;;;;;2.35;1.73;;;;;;;26.56;40.41;100153.09;5073526;28;20075;-86
2022/07/08 10:49:50;;;;;;;4.43;2.50;;;;;;;26.33;40.99;100151.72;5089538;28;20105;-83
2022/07/08 10:52:21;;;;;;;2.47;2.10;;;;;;;26.30;41.37;100149.22;5073110;28;20060;-84
2022/07/08 10:55:08;;;;;;;3.42;2.20;;;;;;;26.00;41.83;100147.31;5083592;28;20063;-88
2022/07/08 10:57:36;;;;;;;3.42;1.75;;;;;;;25.64;41.97;100159.09;5093505;28;20059;-85
2022/07/08 11:00:07;;;;;;;2.13;1.92;;;;;;;25.65;41.73;100127.84;5094525;28;20063;-84
2022/07/08 11:02:42;;;;;;;2.38;1.92;;;;;;;25.81;41.33;100147.44;5093437;28;20055;-84
2022/07/08 11:05:39;;;;;;;3.70;2.20;;;;;;;25.56;42.12;100149.78;5109189;28;20055;-86
2022/07/08 11:08:19;;;;;;;2.30;2.10;;;;;;;25.78;41.42;100144.09;5093327;28;20052;-85
2022/07/08 11:10:48;;;;;;;2.65;1.80;;;;;;;26.02;41.14;100136.53;5093236;28;20134;-85
2022/07/08 11:13:22;;;;;;;3.70;2.30;;;;;;;26.06;41.68;100135.41;5093990;28;20429;-83
2022/07/08 11:15:50;;;;;;;2.45;1.90;;;;;;;26.14;41.06;100138.53;5092776;28;20138;-84
2022/07/08 11:18:22;;;;;;;4.35;2.00;;;;;;;26.09;41.14;100128.09;5075935;28;20209;-86
2022/07/08 11:20:50;;;;;;;1.95;1.67;;;;;;;26.12;41.45;100127.03;5094590;28;20056;-83
2022/07/08 11:23:22;;;;;;;4.45;2.13;;;;;;;26.07;41.53;100121.06;5083289;28;20044;-88
2022/07/08 11:26:01;;;;;;;3.90;2.67;;;;;;;25.95;41.31;100115.47;5101004;28;20086;-85
2022/07/08 11:28:28;;;;;;;5.35;3.85;;;;;;;26.04;41.38;100119.44;5100931;28;20070;-85
2022/07/08 11:30:57;;;;;;;5.43;3.88;;;;;;;26.43;41.06;100142.19;5099571;28;20079;-83
2022/07/08 11:33:40;;;;;;;2.88;2.58;;;;;;;26.71;40.16;100122.72;5098953;28;20087;-86
2022/07/08 11:36:18;;;;;;;2.40;2.10;;;;;;;26.77;39.37;100130.38;5076628;28;20475;-86